sensor_id;sensor_type;location;lat;lon;timestamp;pressure;altitude;pressure_sealevel;temperature;humidity
53932;BME280;39844;52.496;13.482;2023-08-21T00:00:02;101907.44;;;22.33;89.74
53932;BME280;39844;52.496;13.482;2023-08-21T00:02:27;101905.75;;;22.30;90.35
53932;BME280;39844;52.496;13.482;2023-08-21T00:04:53;101908.59;;;22.26;90.03
53932;BME280;39844;52.496;13.482;2023-08-21T00:07:18;101902.47;;;22.22;90.48
53932;BME280;39844;52.496;13.482;2023-08-21T00:09:43;101906.16;;;22.18;90.81
53932;BME280;39844;52.496;13.482;2023-08-21T00:12:09;101908.03;;;22.16;91.47
53932;BME280;39844;52.496;13.482;2023-08-21T00:14:34;101898.31;;;22.14;91.31
53932;BME280;39844;52.496;13.482;2023-08-21T00:16:59;101901.97;;;22.11;92.14
53932;BME280;39844;52.496;13.482;2023-08-21T00:19:25;101894.03;;;22.08;91.90
53932;BME280;39844;52.496;13.482;2023-08-21T00:21:50;101903.03;;;22.06;92.54
53932;BME280;39844;52.496;13.482;2023-08-21T00:24:16;101899.56;;;22.02;92.94
53932;BME280;39844;52.496;13.482;2023-08-21T00:26:42;101901.50;;;21.97;93.13
53932;BME280;39844;52.496;13.482;2023-08-21T00:29:07;101906.09;;;21.93;94.21
53932;BME280;39844;52.496;13.482;2023-08-21T00:31:32;101901.72;;;21.91;94.58
53932;BME280;39844;52.496;13.482;2023-08-21T00:33:57;101900.94;;;21.87;95.40
53932;BME280;39844;52.496;13.482;2023-08-21T00:36:23;101901.00;;;21.84;95.66
53932;BME280;39844;52.496;13.482;2023-08-21T00:38:48;101901.06;;;21.83;95.98
53932;BME280;39844;52.496;13.482;2023-08-21T00:41:13;101901.13;;;21.81;95.76
53932;BME280;39844;52.496;13.482;2023-08-21T00:43:39;101902.91;;;21.81;96.31
53932;BME280;39844;52.496;13.482;2023-08-21T00:46:04;101905.66;;;21.78;96.80
53932;BME280;39844;52.496;13.482;2023-08-21T00:48:30;101905.69;;;21.76;97.38
53932;BME280;39844;52.496;13.482;2023-08-21T00:50:56;101900.41;;;21.75;97.60
53932;BME280;39844;52.496;13.482;2023-08-21T00:53:21;101908.50;;;21.73;97.76
53932;BME280;39844;52.496;13.482;2023-08-21T00:55:47;101902.28;;;21.73;98.19
53932;BME280;39844;52.496;13.482;2023-08-21T00:58:12;101909.47;;;21.71;97.95
53932;BME280;39844;52.496;13.482;2023-08-21T01:00:39;101896.13;;;21.69;98.02
53932;BME280;39844;52.496;13.482;2023-08-21T01:03:05;101899.63;;;21.71;98.29
53932;BME280;39844;52.496;13.482;2023-08-21T01:05:30;101896.13;;;21.69;98.63
53932;BME280;39844;52.496;13.482;2023-08-21T01:08:09;101913.06;;;21.70;98.94
53932;BME280;39844;52.496;13.482;2023-08-21T01:13:16;101911.41;;;21.66;99.38
53932;BME280;39844;52.496;13.482;2023-08-21T01:15:45;101906.97;;;21.65;99.75
53932;BME280;39844;52.496;13.482;2023-08-21T01:18:11;101903.41;;;21.64;100.00
53932;BME280;39844;52.496;13.482;2023-08-21T01:20:37;101915.00;;;21.65;100.00
53932;BME280;39844;52.496;13.482;2023-08-21T01:23:04;101907.78;;;21.67;100.00
53932;BME280;39844;52.496;13.482;2023-08-21T01:25:30;101908.63;;;21.69;100.00
53932;BME280;39844;52.496;13.482;2023-08-21T01:27:55;101913.06;;;21.70;100.00
53932;BME280;39844;52.496;13.482;2023-08-21T01:30:20;101905.91;;;21.70;100.00
53932;BME280;39844;52.496;13.482;2023-08-21T01:33:00;101908.59;;;21.70;99.90
53932;BME280;39844;52.496;13.482;2023-08-21T01:35:28;101901.38;;;21.72;99.94
53932;BME280;39844;52.496;13.482;2023-08-21T01:37:55;101904.94;;;21.73;99.55
53932;BME280;39844;52.496;13.482;2023-08-21T01:40:24;101894.19;;;21.74;99.06
53932;BME280;39844;52.496;13.482;2023-08-21T01:42:50;101893.31;;;21.74;98.01
53932;BME280;39844;52.496;13.482;2023-08-21T01:45:17;101894.19;;;21.74;97.91
53932;BME280;39844;52.496;13.482;2023-08-21T01:47:42;101888.81;;;21.76;98.30
53932;BME280;39844;52.496;13.482;2023-08-21T01:50:08;101891.47;;;21.76;98.56
53932;BME280;39844;52.496;13.482;2023-08-21T01:52:33;101880.66;;;21.79;98.57
53932;BME280;39844;52.496;13.482;2023-08-21T01:55:00;101877.19;;;21.77;98.64
53932;BME280;39844;52.496;13.482;2023-08-21T01:57:25;101885.19;;;21.77;98.58
53932;BME280;39844;52.496;13.482;2023-08-21T01:59:50;101890.50;;;21.78;98.22
53932;BME280;39844;52.496;13.482;2023-08-21T02:02:16;101888.75;;;21.77;98.23
53932;BME280;39844;52.496;13.482;2023-08-21T02:04:43;101890.53;;;21.77;98.09
53932;BME280;39844;52.496;13.482;2023-08-21T02:07:09;101887.88;;;21.77;97.95
53932;BME280;39844;52.496;13.482;2023-08-21T02:09:34;101884.28;;;21.78;97.83
53932;BME280;39844;52.496;13.482;2023-08-21T02:11:59;101884.28;;;21.78;98.20
53932;BME280;39844;52.496;13.482;2023-08-21T02:14:25;101883.34;;;21.79;97.62
53932;BME280;39844;52.496;13.482;2023-08-21T02:16:50;101874.47;;;21.78;97.98
53932;BME280;39844;52.496;13.482;2023-08-21T02:19:15;101886.91;;;21.79;97.82
53932;BME280;39844;52.496;13.482;2023-08-21T02:21:41;101879.81;;;21.78;97.38
53932;BME280;39844;52.496;13.482;2023-08-21T02:24:06;101883.41;;;21.77;97.01
53932;BME280;39844;52.496;13.482;2023-08-21T02:26:31;101873.59;;;21.78;97.01
53932;BME280;39844;52.496;13.482;2023-08-21T02:28:56;101881.56;;;21.79;97.16
53932;BME280;39844;52.496;13.482;2023-08-21T02:31:22;101881.53;;;21.81;96.61
53932;BME280;39844;52.496;13.482;2023-08-21T02:33:49;101879.75;;;21.80;96.93
53932;BME280;39844;52.496;13.482;2023-08-21T02:36:14;101889.53;;;21.81;96.66
53932;BME280;39844;52.496;13.482;2023-08-21T02:38:40;101885.09;;;21.80;97.24
53932;BME280;39844;52.496;13.482;2023-08-21T02:41:05;101883.34;;;21.79;96.68
53932;BME280;39844;52.496;13.482;2023-08-21T02:43:30;101887.88;;;21.77;96.92
53932;BME280;39844;52.496;13.482;2023-08-21T02:45:55;101887.88;;;21.77;97.10
53932;BME280;39844;52.496;13.482;2023-08-21T02:48:21;101883.47;;;21.76;97.30
53932;BME280;39844;52.496;13.482;2023-08-21T02:50:46;101881.63;;;21.76;97.76
53932;BME280;39844;52.496;13.482;2023-08-21T02:53:11;101882.59;;;21.75;97.49
53932;BME280;39844;52.496;13.482;2023-08-21T02:55:36;101879.84;;;21.77;98.13
53932;BME280;39844;52.496;13.482;2023-08-21T02:58:02;101886.13;;;21.76;98.14
53932;BME280;39844;52.496;13.482;2023-08-21T03:00:27;101887.97;;;21.74;98.88
53932;BME280;39844;52.496;13.482;2023-08-21T03:02:52;101887.97;;;21.74;99.60
53932;BME280;39844;52.496;13.482;2023-08-21T03:05:18;101887.13;;;21.73;99.48
53932;BME280;39844;52.496;13.482;2023-08-21T03:07:43;101882.75;;;21.71;98.92
53932;BME280;39844;52.496;13.482;2023-08-21T03:10:09;101877.38;;;21.71;97.98
53932;BME280;39844;52.496;13.482;2023-08-21T03:12:34;101875.63;;;21.70;98.25
53932;BME280;39844;52.496;13.482;2023-08-21T03:14:59;101882.75;;;21.71;98.23
53932;BME280;39844;52.496;13.482;2023-08-21T03:17:25;101880.97;;;21.70;98.04
53932;BME280;39844;52.496;13.482;2023-08-21T03:19:50;101873.88;;;21.69;98.64
53932;BME280;39844;52.496;13.482;2023-08-21T03:22:15;101880.16;;;21.68;99.22
53932;BME280;39844;52.496;13.482;2023-08-21T03:24:41;101872.16;;;21.66;99.79
53932;BME280;39844;52.496;13.482;2023-08-21T03:27:06;101869.50;;;21.66;100.00
53932;BME280;39844;52.496;13.482;2023-08-21T03:29:31;101873.09;;;21.65;100.00
53932;BME280;39844;52.496;13.482;2023-08-21T03:31:57;101878.47;;;21.64;100.00
53932;BME280;39844;52.496;13.482;2023-08-21T03:34:23;101874.16;;;21.60;100.00
53932;BME280;39844;52.496;13.482;2023-08-21T03:36:48;101866.22;;;21.58;100.00
53932;BME280;39844;52.496;13.482;2023-08-21T03:39:14;101873.28;;;21.59;100.00
53932;BME280;39844;52.496;13.482;2023-08-21T03:41:39;101878.63;;;21.59;99.79
53932;BME280;39844;52.496;13.482;2023-08-21T03:44:04;101873.44;;;21.55;98.92
53932;BME280;39844;52.496;13.482;2023-08-21T03:46:30;101870.75;;;21.55;98.23
53932;BME280;39844;52.496;13.482;2023-08-21T03:48:55;101873.44;;;21.55;99.04
53932;BME280;39844;52.496;13.482;2023-08-21T03:51:20;101873.50;;;21.53;97.41
53932;BME280;39844;52.496;13.482;2023-08-21T03:53:45;101870.75;;;21.55;97.79
53932;BME280;39844;52.496;13.482;2023-08-21T03:56:11;101878.78;;;21.55;99.13
53932;BME280;39844;52.496;13.482;2023-08-21T03:58:36;101884.06;;;21.56;99.29
53932;BME280;39844;52.496;13.482;2023-08-21T04:01:02;101893.78;;;21.59;99.16
53932;BME280;39844;52.496;13.482;2023-08-21T04:03:27;101885.75;;;21.59;99.00
53932;BME280;39844;52.496;13.482;2023-08-21T04:05:53;101890.19;;;21.60;99.46
53932;BME280;39844;52.496;13.482;2023-08-21T04:08:19;101887.47;;;21.61;99.41
53932;BME280;39844;52.496;13.482;2023-08-21T04:10:44;101899.88;;;21.64;100.00
53932;BME280;39844;52.496;13.482;2023-08-21T04:13:10;101897.19;;;21.64;100.00
53932;BME280;39844;52.496;13.482;2023-08-21T04:15:35;101894.53;;;21.64;100.00
53932;BME280;39844;52.496;13.482;2023-08-21T04:18:00;101898.94;;;21.65;100.00
53932;BME280;39844;52.496;13.482;2023-08-21T04:20:26;101900.72;;;21.66;100.00
53932;BME280;39844;52.496;13.482;2023-08-21T04:22:51;101896.22;;;21.66;100.00
53932;BME280;39844;52.496;13.482;2023-08-21T04:25:16;101898.94;;;21.65;100.00
53932;BME280;39844;52.496;13.482;2023-08-21T04:27:42;101907.88;;;21.64;100.00
53932;BME280;39844;52.496;13.482;2023-08-21T04:30:08;101908.81;;;21.63;99.38
53932;BME280;39844;52.496;13.482;2023-08-21T04:32:33;101917.72;;;21.63;99.28
53932;BME280;39844;52.496;13.482;2023-08-21T04:34:59;101907.88;;;21.64;98.32
53932;BME280;39844;52.496;13.482;2023-08-21T04:37:24;101909.56;;;21.68;99.16
53932;BME280;39844;52.496;13.482;2023-08-21T04:39:53;101904.13;;;21.71;99.40
53932;BME280;39844;52.496;13.482;2023-08-21T04:42:19;101915.63;;;21.73;98.85
53932;BME280;39844;52.496;13.482;2023-08-21T04:44:44;101910.31;;;21.71;98.37
53932;BME280;39844;52.496;13.482;2023-08-21T04:47:21;101918.31;;;21.73;99.11
53932;BME280;39844;52.496;13.482;2023-08-21T04:49:48;101917.34;;;21.75;99.59
53932;BME280;39844;52.496;13.482;2023-08-21T04:52:14;101912.81;;;21.77;99.48
53932;BME280;39844;52.496;13.482;2023-08-21T04:54:39;101913.69;;;21.78;98.72
53932;BME280;39844;52.496;13.482;2023-08-21T04:57:04;101923.50;;;21.77;98.69
53932;BME280;39844;52.496;13.482;2023-08-21T04:59:29;101919.94;;;21.77;97.56
53932;BME280;39844;52.496;13.482;2023-08-21T05:01:55;101925.28;;;21.77;95.69
53932;BME280;39844;52.496;13.482;2023-08-21T05:04:20;101934.06;;;21.82;95.75
53932;BME280;39844;52.496;13.482;2023-08-21T05:06:45;101925.94;;;21.85;94.72
53932;BME280;39844;52.496;13.482;2023-08-21T05:09:10;101931.16;;;21.91;93.64
53932;BME280;39844;52.496;13.482;2023-08-21T05:11:36;101927.41;;;21.96;92.70
53932;BME280;39844;52.496;13.482;2023-08-21T05:14:01;101932.59;;;22.01;91.30
53932;BME280;39844;52.496;13.482;2023-08-21T05:16:26;101931.63;;;22.03;90.93
53932;BME280;39844;52.496;13.482;2023-08-21T05:18:51;101939.56;;;22.07;90.45
53932;BME280;39844;52.496;13.482;2023-08-21T05:21:17;101932.19;;;22.13;90.76
53932;BME280;39844;52.496;13.482;2023-08-21T05:23:42;101933.91;;;22.16;89.40
53932;BME280;39844;52.496;13.482;2023-08-21T05:26:08;101936.41;;;22.20;89.71
53932;BME280;39844;52.496;13.482;2023-08-21T05:28:33;101939.88;;;22.24;88.58
53932;BME280;39844;52.496;13.482;2023-08-21T05:30:58;101937.09;;;22.27;88.26
53932;BME280;39844;52.496;13.482;2023-08-21T05:33:24;101928.94;;;22.30;87.74
53932;BME280;39844;52.496;13.482;2023-08-21T05:35:49;101940.50;;;22.32;88.37
53932;BME280;39844;52.496;13.482;2023-08-21T05:38:14;101935.16;;;22.32;86.83
53932;BME280;39844;52.496;13.482;2023-08-21T05:40:42;101936.88;;;22.33;86.67
53932;BME280;39844;52.496;13.482;2023-08-21T05:43:08;101937.72;;;22.35;86.56
53932;BME280;39844;52.496;13.482;2023-08-21T05:45:33;101934.84;;;22.41;87.53
53932;BME280;39844;52.496;13.482;2023-08-21T05:47:59;101940.16;;;22.42;87.20
53932;BME280;39844;52.496;13.482;2023-08-21T05:50:24;101939.19;;;22.45;87.17
53932;BME280;39844;52.496;13.482;2023-08-21T05:52:49;101942.66;;;22.47;85.85
53932;BME280;39844;52.496;13.482;2023-08-21T05:55:14;101950.44;;;22.54;86.17
53932;BME280;39844;52.496;13.482;2023-08-21T05:57:40;101955.50;;;22.63;86.33
53932;BME280;39844;52.496;13.482;2023-08-21T06:00:05;101947.31;;;22.68;84.37
53932;BME280;39844;52.496;13.482;2023-08-21T06:02:31;101945.41;;;22.72;84.24
53932;BME280;39844;52.496;13.482;2023-08-21T06:04:56;101950.66;;;22.75;83.78
53932;BME280;39844;52.496;13.482;2023-08-21T06:07:21;101940.66;;;22.80;85.10
53932;BME280;39844;52.496;13.482;2023-08-21T06:09:47;101951.28;;;22.83;84.33
53932;BME280;39844;52.496;13.482;2023-08-21T06:12:12;101936.91;;;22.85;84.35
53932;BME280;39844;52.496;13.482;2023-08-21T06:14:37;101943.72;;;22.94;83.52
53932;BME280;39844;52.496;13.482;2023-08-21T06:17:04;101947.81;;;23.04;83.62
53932;BME280;39844;52.496;13.482;2023-08-21T06:19:29;101937.66;;;23.13;83.30
53932;BME280;39844;52.496;13.482;2023-08-21T06:21:56;101937.50;;;23.18;82.67
53932;BME280;39844;52.496;13.482;2023-08-21T06:24:22;101934.72;;;23.21;81.45
53932;BME280;39844;52.496;13.482;2023-08-21T06:26:47;101940.81;;;23.24;81.74
53932;BME280;39844;52.496;13.482;2023-08-21T06:29:12;101943.19;;;23.32;81.08
53932;BME280;39844;52.496;13.482;2023-08-21T06:31:38;101938.66;;;23.34;79.30
53932;BME280;39844;52.496;13.482;2023-08-21T06:34:03;101947.41;;;23.41;78.58
53932;BME280;39844;52.496;13.482;2023-08-21T06:36:28;101946.41;;;23.43;78.44
53932;BME280;39844;52.496;13.482;2023-08-21T06:38:57;101955.25;;;23.45;77.24
53932;BME280;39844;52.496;13.482;2023-08-21T06:41:22;101960.72;;;23.42;76.55
53932;BME280;39844;52.496;13.482;2023-08-21T06:43:47;101954.38;;;23.45;76.44
53932;BME280;39844;52.496;13.482;2023-08-21T06:46:13;101958.63;;;23.50;75.52
53932;BME280;39844;52.496;13.482;2023-08-21T06:48:39;101959.28;;;23.57;74.09
53932;BME280;39844;52.496;13.482;2023-08-21T06:51:05;101948.28;;;23.64;74.12
53932;BME280;39844;52.496;13.482;2023-08-21T06:53:30;101954.19;;;23.72;73.96
53932;BME280;39844;52.496;13.482;2023-08-21T06:55:55;101958.53;;;23.76;74.06
53932;BME280;39844;52.496;13.482;2023-08-21T06:58:21;101953.97;;;23.78;74.58
53932;BME280;39844;52.496;13.482;2023-08-21T07:00:46;101962.00;;;23.78;73.88
53932;BME280;39844;52.496;13.482;2023-08-21T07:03:11;101960.94;;;23.82;74.01
53932;BME280;39844;52.496;13.482;2023-08-21T07:05:37;101958.97;;;23.87;74.18
53932;BME280;39844;52.496;13.482;2023-08-21T07:08:02;101963.28;;;23.92;73.76
53932;BME280;39844;52.496;13.482;2023-08-21T07:10:28;101958.84;;;23.90;72.57
53932;BME280;39844;52.496;13.482;2023-08-21T07:12:53;101943.63;;;23.91;71.69
53932;BME280;39844;52.496;13.482;2023-08-21T07:15:18;101956.13;;;23.92;70.23
53932;BME280;39844;52.496;13.482;2023-08-21T07:17:44;101958.66;;;23.95;71.16
53932;BME280;39844;52.496;13.482;2023-08-21T07:20:09;101955.75;;;24.01;71.91
53932;BME280;39844;52.496;13.482;2023-08-21T07:22:35;101956.63;;;24.02;70.13
53932;BME280;39844;52.496;13.482;2023-08-21T07:25:00;101953.84;;;24.03;69.31
53932;BME280;39844;52.496;13.482;2023-08-21T07:27:25;101946.63;;;24.05;70.44
53932;BME280;39844;52.496;13.482;2023-08-21T07:29:51;101958.22;;;24.06;69.76
53932;BME280;39844;52.496;13.482;2023-08-21T07:32:16;101965.41;;;24.05;70.46
53932;BME280;39844;52.496;13.482;2023-08-21T07:34:41;101962.78;;;24.04;71.44
53932;BME280;39844;52.496;13.482;2023-08-21T07:37:07;101971.72;;;24.04;70.14
53932;BME280;39844;52.496;13.482;2023-08-21T07:39:33;101968.03;;;24.07;70.11
53932;BME280;39844;52.496;13.482;2023-08-21T07:41:58;101968.88;;;24.09;69.58
53932;BME280;39844;52.496;13.482;2023-08-21T07:44:23;101964.16;;;24.15;69.46
53932;BME280;39844;52.496;13.482;2023-08-21T07:46:48;101969.44;;;24.17;66.62
53932;BME280;39844;52.496;13.482;2023-08-21T07:49:14;101967.66;;;24.17;66.73
53932;BME280;39844;52.496;13.482;2023-08-21T07:51:39;101975.50;;;24.22;66.58
53932;BME280;39844;52.496;13.482;2023-08-21T07:54:04;101978.88;;;24.27;66.62
53932;BME280;39844;52.496;13.482;2023-08-21T07:56:30;101982.25;;;24.32;65.35
53932;BME280;39844;52.496;13.482;2023-08-21T07:58:55;101986.84;;;24.28;62.32
53932;BME280;39844;52.496;13.482;2023-08-21T08:01:20;101983.31;;;24.28;61.44
53932;BME280;39844;52.496;13.482;2023-08-21T08:03:45;101987.69;;;24.30;61.74
53932;BME280;39844;52.496;13.482;2023-08-21T08:06:11;101984.75;;;24.36;60.90
53932;BME280;39844;52.496;13.482;2023-08-21T08:08:36;101978.00;;;24.48;61.38
53932;BME280;39844;52.496;13.482;2023-08-21T08:11:02;101987.44;;;24.58;61.43
53932;BME280;39844;52.496;13.482;2023-08-21T08:13:27;101977.75;;;24.74;61.77
53932;BME280;39844;52.496;13.482;2023-08-21T08:15:53;101978.44;;;24.81;60.48
53932;BME280;39844;52.496;13.482;2023-08-21T08:18:18;101981.56;;;24.90;60.90
53932;BME280;39844;52.496;13.482;2023-08-21T08:20:43;101989.22;;;24.99;60.90
53932;BME280;39844;52.496;13.482;2023-08-21T08:23:08;101985.47;;;25.03;60.05
53932;BME280;39844;52.496;13.482;2023-08-21T08:25:34;101982.00;;;25.01;57.82
53932;BME280;39844;52.496;13.482;2023-08-21T08:27:59;101985.63;;;25.00;57.11
53932;BME280;39844;52.496;13.482;2023-08-21T08:30:24;101982.84;;;25.02;56.11
53932;BME280;39844;52.496;13.482;2023-08-21T08:32:50;101982.94;;;25.00;55.69
53932;BME280;39844;52.496;13.482;2023-08-21T08:35:15;101978.47;;;24.99;53.92
53932;BME280;39844;52.496;13.482;2023-08-21T08:37:41;101981.91;;;25.03;54.31
53932;BME280;39844;52.496;13.482;2023-08-21T08:40:07;101986.28;;;25.05;53.70
53932;BME280;39844;52.496;13.482;2023-08-21T08:42:34;101989.78;;;25.07;54.35
53932;BME280;39844;52.496;13.482;2023-08-21T08:45:02;101982.25;;;24.95;52.97
53932;BME280;39844;52.496;13.482;2023-08-21T08:47:27;101986.34;;;24.84;52.79
53932;BME280;39844;52.496;13.482;2023-08-21T08:49:54;101994.47;;;24.82;53.63
53932;BME280;39844;52.496;13.482;2023-08-21T08:52:19;101994.22;;;24.88;55.35
53932;BME280;39844;52.496;13.482;2023-08-21T08:54:45;101988.72;;;24.91;55.65
53932;BME280;39844;52.496;13.482;2023-08-21T08:57:11;101991.13;;;24.97;56.00
53932;BME280;39844;52.496;13.482;2023-08-21T08:59:36;101992.41;;;25.09;57.15
53932;BME280;39844;52.496;13.482;2023-08-21T09:02:02;101991.25;;;25.14;57.58
53932;BME280;39844;52.496;13.482;2023-08-21T09:04:28;101998.13;;;25.22;57.55
53932;BME280;39844;52.496;13.482;2023-08-21T09:07:06;101989.22;;;25.20;54.00
53932;BME280;39844;52.496;13.482;2023-08-21T09:09:37;101990.44;;;25.12;50.10
53932;BME280;39844;52.496;13.482;2023-08-21T09:12:09;101992.00;;;25.18;51.09
53932;BME280;39844;52.496;13.482;2023-08-21T09:14:34;101991.59;;;25.27;50.78
53932;BME280;39844;52.496;13.482;2023-08-21T09:17:00;101975.97;;;25.35;51.37
53932;BME280;39844;52.496;13.482;2023-08-21T09:19:26;101979.41;;;25.39;49.68
53932;BME280;39844;52.496;13.482;2023-08-21T09:21:51;101981.81;;;25.45;48.58
53932;BME280;39844;52.496;13.482;2023-08-21T09:24:16;101979.00;;;25.48;44.34
53932;BME280;39844;52.496;13.482;2023-08-21T09:26:42;101968.84;;;25.54;41.93
53932;BME280;39844;52.496;13.482;2023-08-21T09:29:07;101974.91;;;25.59;40.24
53932;BME280;39844;52.496;13.482;2023-08-21T09:31:33;101977.09;;;25.70;39.45
53932;BME280;39844;52.496;13.482;2023-08-21T09:33:59;101968.31;;;25.85;40.74
53932;BME280;39844;52.496;13.482;2023-08-21T09:36:25;101968.63;;;25.96;40.48
53932;BME280;39844;52.496;13.482;2023-08-21T09:38:51;101966.53;;;26.03;41.10
53932;BME280;39844;52.496;13.482;2023-08-21T09:41:20;101963.75;;;26.04;40.78
53932;BME280;39844;52.496;13.482;2023-08-21T09:43:45;101972.94;;;26.00;40.78
53932;BME280;39844;52.496;13.482;2023-08-21T09:46:17;101967.78;;;25.96;42.08
53932;BME280;39844;52.496;13.482;2023-08-21T09:48:48;101974.25;;;25.92;42.05
53932;BME280;39844;52.496;13.482;2023-08-21T09:51:13;101965.00;;;25.97;44.43
53932;BME280;39844;52.496;13.482;2023-08-21T09:53:40;101965.66;;;26.02;44.21
53932;BME280;39844;52.496;13.482;2023-08-21T09:56:05;101958.25;;;26.07;43.63
53932;BME280;39844;52.496;13.482;2023-08-21T09:58:31;101965.88;;;26.16;44.38
53932;BME280;39844;52.496;13.482;2023-08-21T10:00:58;101964.81;;;26.20;43.53
53932;BME280;39844;52.496;13.482;2023-08-21T10:03:24;101955.63;;;26.24;42.53
53932;BME280;39844;52.496;13.482;2023-08-21T10:05:50;101958.38;;;26.42;45.15
53932;BME280;39844;52.496;13.482;2023-08-21T10:08:22;101950.03;;;26.46;43.39
53932;BME280;39844;52.496;13.482;2023-08-21T10:10:48;101959.66;;;26.52;43.56
53932;BME280;39844;52.496;13.482;2023-08-21T10:13:14;101951.47;;;26.53;43.55
53932;BME280;39844;52.496;13.482;2023-08-21T10:15:40;101958.00;;;26.66;45.11
53932;BME280;39844;52.496;13.482;2023-08-21T10:18:31;101960.44;;;26.71;41.34
53932;BME280;39844;52.496;13.482;2023-08-21T10:21:10;101964.94;;;26.70;41.85
53932;BME280;39844;52.496;13.482;2023-08-21T10:23:37;101962.50;;;26.66;40.50
53932;BME280;39844;52.496;13.482;2023-08-21T10:26:05;101959.16;;;26.61;41.57
53932;BME280;39844;52.496;13.482;2023-08-21T10:33:52;101968.38;;;26.57;40.93
53932;BME280;39844;52.496;13.482;2023-08-21T10:36:40;101968.91;;;26.63;41.47
53932;BME280;39844;52.496;13.482;2023-08-21T10:39:25;101964.78;;;26.73;40.79
53932;BME280;39844;52.496;13.482;2023-08-21T10:41:54;101954.13;;;26.72;41.05
53932;BME280;39844;52.496;13.482;2023-08-21T10:47:22;101958.09;;;26.82;41.73
53932;BME280;39844;52.496;13.482;2023-08-21T10:49:51;101959.69;;;26.86;42.05
53932;BME280;39844;52.496;13.482;2023-08-21T10:52:25;101966.19;;;26.82;42.38
53932;BME280;39844;52.496;13.482;2023-08-21T10:54:56;101962.78;;;26.78;42.69
53932;BME280;39844;52.496;13.482;2023-08-21T10:57:23;101958.69;;;26.70;41.41
53932;BME280;39844;52.496;13.482;2023-08-21T11:02:26;101962.44;;;27.02;41.16
53932;BME280;39844;52.496;13.482;2023-08-21T11:04:52;101964.88;;;27.23;41.53
53932;BME280;39844;52.496;13.482;2023-08-21T11:07:18;101967.44;;;27.59;40.54
53932;BME280;39844;52.496;13.482;2023-08-21T11:09:43;101964.84;;;27.73;40.78
53932;BME280;39844;52.496;13.482;2023-08-21T11:12:13;101962.59;;;27.97;40.53
53932;BME280;39844;52.496;13.482;2023-08-21T11:14:39;101960.47;;;28.19;40.97
53932;BME280;39844;52.496;13.482;2023-08-21T11:17:06;101959.84;;;28.30;39.96
53932;BME280;39844;52.496;13.482;2023-08-21T11:19:33;101967.13;;;28.43;39.77
53932;BME280;39844;52.496;13.482;2023-08-21T11:22:02;101965.44;;;28.72;41.15
53932;BME280;39844;52.496;13.482;2023-08-21T11:27:09;101957.88;;;29.07;38.01
53932;BME280;39844;52.496;13.482;2023-08-21T11:29:41;101958.75;;;28.63;36.84
53932;BME280;39844;52.496;13.482;2023-08-21T11:32:14;101958.41;;;28.38;38.81
53932;BME280;39844;52.496;13.482;2023-08-21T11:34:41;101954.09;;;28.04;38.09
53932;BME280;39844;52.496;13.482;2023-08-21T11:37:07;101956.50;;;27.78;39.17
53932;BME280;39844;52.496;13.482;2023-08-21T11:39:48;101958.38;;;27.60;39.84
53932;BME280;39844;52.496;13.482;2023-08-21T11:42:14;101958.66;;;27.55;40.13
53932;BME280;39844;52.496;13.482;2023-08-21T11:45:00;101949.53;;;27.58;40.93
53932;BME280;39844;52.496;13.482;2023-08-21T11:47:31;101951.75;;;28.14;41.70
53932;BME280;39844;52.496;13.482;2023-08-21T11:50:02;101953.78;;;28.40;40.47
53932;BME280;39844;52.496;13.482;2023-08-21T11:52:29;101955.16;;;28.63;38.91
53932;BME280;39844;52.496;13.482;2023-08-21T11:54:54;101951.00;;;29.01;37.28
53932;BME280;39844;52.496;13.482;2023-08-21T11:57:21;101950.34;;;29.12;36.81
53932;BME280;39844;52.496;13.482;2023-08-21T11:59:53;101952.28;;;28.96;35.96
53932;BME280;39844;52.496;13.482;2023-08-21T12:02:28;101953.53;;;29.04;37.52
53932;BME280;39844;52.496;13.482;2023-08-21T12:05:04;101953.66;;;29.17;37.50
53932;BME280;39844;52.496;13.482;2023-08-21T12:07:29;101949.63;;;29.24;37.86
53932;BME280;39844;52.496;13.482;2023-08-21T12:09:55;101951.78;;;29.33;39.03
53932;BME280;39844;52.496;13.482;2023-08-21T12:12:20;101953.81;;;29.14;37.98
53932;BME280;39844;52.496;13.482;2023-08-21T12:14:45;101956.53;;;29.00;37.17
53932;BME280;39844;52.496;13.482;2023-08-21T12:17:11;101949.47;;;28.83;37.55
53932;BME280;39844;52.496;13.482;2023-08-21T12:19:36;101952.69;;;28.58;36.85
53932;BME280;39844;52.496;13.482;2023-08-21T12:22:01;101948.34;;;28.26;37.59
53932;BME280;39844;52.496;13.482;2023-08-21T12:24:27;101953.63;;;27.96;38.18
53932;BME280;39844;52.496;13.482;2023-08-21T12:26:52;101953.19;;;27.73;38.89
53932;BME280;39844;52.496;13.482;2023-08-21T12:29:17;101951.19;;;27.61;39.70
53932;BME280;39844;52.496;13.482;2023-08-21T12:31:43;101941.84;;;27.50;39.60
53932;BME280;39844;52.496;13.482;2023-08-21T12:34:08;101944.59;;;27.49;40.70
53932;BME280;39844;52.496;13.482;2023-08-21T12:36:37;101942.69;;;27.51;41.22
53932;BME280;39844;52.496;13.482;2023-08-21T12:39:03;101946.69;;;27.44;40.36
53932;BME280;39844;52.496;13.482;2023-08-21T12:41:28;101947.94;;;27.70;41.67
53932;BME280;39844;52.496;13.482;2023-08-21T12:43:54;101948.00;;;28.32;41.40
53932;BME280;39844;52.496;13.482;2023-08-21T12:46:19;101948.59;;;28.97;39.95
53932;BME280;39844;52.496;13.482;2023-08-21T12:48:44;101943.19;;;28.97;37.76
53932;BME280;39844;52.496;13.482;2023-08-21T12:51:09;101945.69;;;28.86;38.04